sensor_id;sensor_type;location;lat;lon;timestamp;P1;durP1;ratioP1;P2;durP2;ratioP2
50739;SDS011;36704;52.524;17.580;2023-07-20T07:25:08;3.20;;;1.90;;
50739;SDS011;36704;52.524;17.580;2023-07-20T07:28:21;2.25;;;1.67;;
50739;SDS011;36704;52.524;17.580;2023-07-20T07:31:26;3.15;;;1.88;;
50739;SDS011;36704;52.524;17.580;2023-07-20T07:35:07;1.88;;;1.38;;
50739;SDS011;36704;52.524;17.580;2023-07-20T07:38:21;4.97;;;1.55;;
50739;SDS011;36704;52.524;17.580;2023-07-20T07:41:30;2.30;;;1.30;;
50739;SDS011;36704;52.524;17.580;2023-07-20T07:44:17;4.10;;;1.40;;
50739;SDS011;36704;52.524;17.580;2023-07-20T07:47:07;3.25;;;1.25;;
50739;SDS011;36704;52.524;17.580;2023-07-20T07:50:18;3.08;;;1.80;;
50739;SDS011;36704;52.524;17.580;2023-07-20T07:53:31;2.35;;;1.40;;
50739;SDS011;36704;52.524;17.580;2023-07-20T07:56:19;2.17;;;1.55;;
50739;SDS011;36704;52.524;17.580;2023-07-20T07:59:57;2.03;;;1.30;;
50739;SDS011;36704;52.524;17.580;2023-07-20T08:02:53;3.75;;;1.48;;
50739;SDS011;36704;52.524;17.580;2023-07-20T08:06:19;3.72;;;1.70;;
50739;SDS011;36704;52.524;17.580;2023-07-20T08:09:14;3.40;;;1.75;;
50739;SDS011;36704;52.524;17.580;2023-07-20T08:12:20;3.05;;;1.80;;
50739;SDS011;36704;52.524;17.580;2023-07-20T08:15:37;2.70;;;1.50;;
50739;SDS011;36704;52.524;17.580;2023-07-20T08:18:52;2.60;;;1.20;;
50739;SDS011;36704;52.524;17.580;2023-07-20T08:21:41;3.85;;;1.23;;
50739;SDS011;36704;52.524;17.580;2023-07-20T08:24:33;2.47;;;1.20;;
50739;SDS011;36704;52.524;17.580;2023-07-20T08:32:41;3.30;;;1.48;;
50739;SDS011;36704;52.524;17.580;2023-07-20T08:37:30;6.25;;;1.58;;
50739;SDS011;36704;52.524;17.580;2023-07-20T08:40:57;3.85;;;1.40;;
50739;SDS011;36704;52.524;17.580;2023-07-20T08:43:59;4.18;;;1.42;;
50739;SDS011;36704;52.524;17.580;2023-07-20T08:54:46;2.10;;;1.10;;
50739;SDS011;36704;52.524;17.580;2023-07-20T09:01:32;2.30;;;1.15;;
50739;SDS011;36704;52.524;17.580;2023-07-20T09:04:47;2.88;;;1.10;;
50739;SDS011;36704;52.524;17.580;2023-07-20T09:08:40;3.15;;;1.40;;
50739;SDS011;36704;52.524;17.580;2023-07-20T09:11:49;2.60;;;1.35;;
50739;SDS011;36704;52.524;17.580;2023-07-20T09:16:15;3.13;;;1.48;;
50739;SDS011;36704;52.524;17.580;2023-07-20T09:19:10;1.60;;;1.00;;
50739;SDS011;36704;52.524;17.580;2023-07-20T09:21:59;1.77;;;1.20;;
50739;SDS011;36704;52.524;17.580;2023-07-20T09:24:46;2.20;;;1.25;;
50739;SDS011;36704;52.524;17.580;2023-07-20T09:27:54;4.60;;;1.17;;
50739;SDS011;36704;52.524;17.580;2023-07-20T09:32:10;2.50;;;1.60;;
50739;SDS011;36704;52.524;17.580;2023-07-20T09:59:41;3.80;;;2.15;;
50739;SDS011;36704;52.524;17.580;2023-07-20T10:02:49;6.75;;;2.60;;
50739;SDS011;36704;52.524;17.580;2023-07-20T10:07:09;4.18;;;2.42;;
50739;SDS011;36704;52.524;17.580;2023-07-20T10:12:00;2.88;;;2.22;;
50739;SDS011;36704;52.524;17.580;2023-07-20T10:16:22;3.00;;;2.10;;
50739;SDS011;36704;52.524;17.580;2023-07-20T10:19:42;5.70;;;2.67;;
50739;SDS011;36704;52.524;17.580;2023-07-20T10:22:34;5.45;;;2.58;;
50739;SDS011;36704;52.524;17.580;2023-07-20T10:25:43;3.22;;;2.10;;
50739;SDS011;36704;52.524;17.580;2023-07-20T10:29:00;2.50;;;1.92;;
50739;SDS011;36704;52.524;17.580;2023-07-20T10:31:52;3.08;;;1.73;;
50739;SDS011;36704;52.524;17.580;2023-07-20T10:34:40;2.13;;;1.60;;
50739;SDS011;36704;52.524;17.580;2023-07-20T10:41:33;2.17;;;1.52;;
50739;SDS011;36704;52.524;17.580;2023-07-20T10:48:23;3.03;;;1.20;;
50739;SDS011;36704;52.524;17.580;2023-07-20T10:51:48;3.45;;;1.40;;
50739;SDS011;36704;52.524;17.580;2023-07-20T10:54:47;2.38;;;1.30;;
50739;SDS011;36704;52.524;17.580;2023-07-20T10:58:16;1.77;;;1.42;;
50739;SDS011;36704;52.524;17.580;2023-07-20T11:01:13;1.83;;;1.40;;
50739;SDS011;36704;52.524;17.580;2023-07-20T11:04:04;2.47;;;1.83;;
50739;SDS011;36704;52.524;17.580;2023-07-20T11:07:37;2.10;;;1.88;;
50739;SDS011;36704;52.524;17.580;2023-07-20T11:10:49;3.22;;;2.10;;
50739;SDS011;36704;52.524;17.580;2023-07-20T11:14:28;3.92;;;1.92;;
50739;SDS011;36704;52.524;17.580;2023-07-20T11:17:33;2.10;;;1.73;;
50739;SDS011;36704;52.524;17.580;2023-07-20T11:20:30;3.03;;;1.77;;
50739;SDS011;36704;52.524;17.580;2023-07-20T11:23:44;3.15;;;1.60;;
50739;SDS011;36704;52.524;17.580;2023-07-20T11:26:44;3.40;;;1.60;;
50739;SDS011;36704;52.524;17.580;2023-07-20T11:29:45;1.63;;;1.52;;
50739;SDS011;36704;52.524;17.580;2023-07-20T11:32:50;2.75;;;1.77;;
50739;SDS011;36704;52.524;17.580;2023-07-20T11:35:54;2.28;;;1.60;;
50739;SDS011;36704;52.524;17.580;2023-07-20T11:40:13;1.40;;;1.20;;
50739;SDS011;36704;52.524;17.580;2023-07-20T11:43:07;1.73;;;1.10;;
50739;SDS011;36704;52.524;17.580;2023-07-20T11:47:12;1.05;;;0.90;;
50739;SDS011;36704;52.524;17.580;2023-07-20T11:50:51;2.72;;;1.20;;
50739;SDS011;36704;52.524;17.580;2023-07-20T11:54:38;3.15;;;1.27;;
50739;SDS011;36704;52.524;17.580;2023-07-20T12:01:17;1.33;;;1.17;;
50739;SDS011;36704;52.524;17.580;2023-07-20T12:04:40;1.35;;;1.10;;
50739;SDS011;36704;52.524;17.580;2023-07-20T12:07:44;3.38;;;1.20;;
50739;SDS011;36704;52.524;17.580;2023-07-20T12:11:49;2.75;;;1.00;;
50739;SDS011;36704;52.524;17.580;2023-07-20T12:15:26;1.58;;;1.25;;
50739;SDS011;36704;52.524;17.580;2023-07-20T12:19:17;1.27;;;1.17;;
50739;SDS011;36704;52.524;17.580;2023-07-20T12:23:08;2.22;;;1.50;;
50739;SDS011;36704;52.524;17.580;2023-07-20T12:26:38;0.95;;;0.95;;
50739;SDS011;36704;52.524;17.580;2023-07-20T12:29:27;4.53;;;1.10;;
50739;SDS011;36704;52.524;17.580;2023-07-20T12:32:24;3.80;;;1.15;;
50739;SDS011;36704;52.524;17.580;2023-07-20T12:35:19;1.67;;;1.25;;
50739;SDS011;36704;52.524;17.580;2023-07-20T12:38:07;2.72;;;1.15;;
50739;SDS011;36704;52.524;17.580;2023-07-20T12:45:09;1.75;;;1.23;;
50739;SDS011;36704;52.524;17.580;2023-07-20T12:48:21;1.85;;;0.93;;
50739;SDS011;36704;52.524;17.580;2023-07-20T12:51:37;2.20;;;0.93;;
50739;SDS011;36704;52.524;17.580;2023-07-20T12:54:47;2.25;;;0.90;;
50739;SDS011;36704;52.524;17.580;2023-07-20T12:58:11;3.00;;;0.98;;
50739;SDS011;36704;52.524;17.580;2023-07-20T13:00:58;1.15;;;1.00;;
50739;SDS011;36704;52.524;17.580;2023-07-20T13:03:46;3.80;;;1.15;;
50739;SDS011;36704;52.524;17.580;2023-07-20T13:06:36;1.13;;;1.02;;
50739;SDS011;36704;52.524;17.580;2023-07-20T13:09:24;2.38;;;0.85;;
50739;SDS011;36704;52.524;17.580;2023-07-20T13:12:12;2.30;;;1.05;;
50739;SDS011;36704;52.524;17.580;2023-07-20T13:15:03;5.45;;;1.38;;
50739;SDS011;36704;52.524;17.580;2023-07-20T13:18:30;5.15;;;1.40;;
50739;SDS011;36704;52.524;17.580;2023-07-20T13:21:55;5.93;;;1.60;;
50739;SDS011;36704;52.524;17.580;2023-07-20T13:25:31;7.95;;;1.70;;
50739;SDS011;36704;52.524;17.580;2023-07-20T13:28:35;2.78;;;1.63;;
50739;SDS011;36704;52.524;17.580;2023-07-20T13:31:39;5.63;;;1.73;;
50739;SDS011;36704;52.524;17.580;2023-07-20T13:34:43;3.15;;;1.30;;
50739;SDS011;36704;52.524;17.580;2023-07-20T13:38:14;1.65;;;0.80;;
50739;SDS011;36704;52.524;17.580;2023-07-20T13:42:00;1.42;;;1.10;;
50739;SDS011;36704;52.524;17.580;2023-07-20T13:45:17;3.97;;;1.05;;
50739;SDS011;36704;52.524;17.580;2023-07-20T13:48:05;1.00;;;0.88;;
50739;SDS011;36704;52.524;17.580;2023-07-20T13:51:36;2.50;;;0.90;;
50739;SDS011;36704;52.524;17.580;2023-07-20T13:58:33;0.98;;;0.80;;
50739;SDS011;36704;52.524;17.580;2023-07-20T14:01:34;1.10;;;0.90;;
50739;SDS011;36704;52.524;17.580;2023-07-20T14:04:38;2.08;;;1.08;;
50739;SDS011;36704;52.524;17.580;2023-07-20T14:08:34;1.17;;;1.08;;
50739;SDS011;36704;52.524;17.580;2023-07-20T14:16:15;0.73;;;0.65;;
50739;SDS011;36704;52.524;17.580;2023-07-20T14:19:28;1.60;;;0.60;;
50739;SDS011;36704;52.524;17.580;2023-07-20T14:22:35;0.50;;;0.50;;
50739;SDS011;36704;52.524;17.580;2023-07-20T14:26:33;2.55;;;0.70;;
50739;SDS011;36704;52.524;17.580;2023-07-20T14:29:36;1.98;;;0.70;;
50739;SDS011;36704;52.524;17.580;2023-07-20T14:32:31;2.15;;;0.60;;
50739;SDS011;36704;52.524;17.580;2023-07-20T14:35:43;2.97;;;1.10;;
50739;SDS011;36704;52.524;17.580;2023-07-20T14:39:18;2.85;;;0.60;;
50739;SDS011;36704;52.524;17.580;2023-07-20T14:42:55;0.85;;;0.70;;
50739;SDS011;36704;52.524;17.580;2023-07-20T14:45:56;0.77;;;0.60;;
50739;SDS011;36704;52.524;17.580;2023-07-20T14:49:39;0.57;;;0.57;;
50739;SDS011;36704;52.524;17.580;2023-07-20T14:53:29;1.10;;;0.60;;
50739;SDS011;36704;52.524;17.580;2023-07-20T14:56:31;1.75;;;0.60;;
50739;SDS011;36704;52.524;17.580;2023-07-20T15:04:27;0.80;;;0.60;;
50739;SDS011;36704;52.524;17.580;2023-07-20T15:08:23;1.05;;;0.60;;
50739;SDS011;36704;52.524;17.580;2023-07-20T15:16:13;1.73;;;0.75;;
50739;SDS011;36704;52.524;17.580;2023-07-20T15:22:42;2.55;;;0.75;;
50739;SDS011;36704;52.524;17.580;2023-07-20T15:31:18;1.13;;;0.70;;
50739;SDS011;36704;52.524;17.580;2023-07-20T15:35:18;1.73;;;0.70;;
50739;SDS011;36704;52.524;17.580;2023-07-20T15:38:36;1.52;;;0.70;;
50739;SDS011;36704;52.524;17.580;2023-07-20T15:41:50;0.70;;;0.50;;
50739;SDS011;36704;52.524;17.580;2023-07-20T15:45:14;1.75;;;0.60;;
50739;SDS011;36704;52.524;17.580;2023-07-20T15:48:39;0.88;;;0.57;;
50739;SDS011;36704;52.524;17.580;2023-07-20T15:51:32;0.65;;;0.63;;
50739;SDS011;36704;52.524;17.580;2023-07-20T15:54:19;1.80;;;0.50;;
50739;SDS011;36704;52.524;17.580;2023-07-20T15:57:43;0.60;;;0.50;;
50739;SDS011;36704;52.524;17.580;2023-07-20T16:00:33;1.88;;;0.60;;
50739;SDS011;36704;52.524;17.580;2023-07-20T16:03:29;1.05;;;0.60;;
50739;SDS011;36704;52.524;17.580;2023-07-20T16:07:00;0.60;;;0.60;;
50739;SDS011;36704;52.524;17.580;2023-07-20T16:50:40;1.48;;;0.90;;
50739;SDS011;36704;52.524;17.580;2023-07-20T17:04:24;1.15;;;1.05;;
50739;SDS011;36704;52.524;17.580;2023-07-20T17:07:40;3.28;;;1.00;;
50739;SDS011;36704;52.524;17.580;2023-07-20T17:15:33;1.45;;;1.20;;
50739;SDS011;36704;52.524;17.580;2023-07-20T17:19:07;1.30;;;1.20;;
50739;SDS011;36704;52.524;17.580;2023-07-20T17:31:05;0.77;;;0.70;;
50739;SDS011;36704;52.524;17.580;2023-07-20T20:35:12;5.00;;;2.18;;
50739;SDS011;36704;52.524;17.580;2023-07-20T21:12:34;2.70;;;2.20;;
50739;SDS011;36704;52.524;17.580;2023-07-20T21:51:51;7.63;;;3.17;;
50739;SDS011;36704;52.524;17.580;2023-07-20T22:52:59;5.47;;;3.20;;
50739;SDS011;36704;52.524;17.580;2023-07-20T22:56:59;4.15;;;3.30;;
50739;SDS011;36704;52.524;17.580;2023-07-20T23:25:37;5.25;;;3.40;;
50739;SDS011;36704;52.524;17.580;2023-07-20T23:47:15;4.78;;;3.58;;
50739;SDS011;36704;52.524;17.580;2023-07-20T23:56:16;6.22;;;3.90;;
